• Join FlightAware (Why Join?)
  • Login
  • US Flag 
04:49AM EDT


 

Airport Tracker/Info


-or-


 

Live Flight TrackerFlight Track Log ✈ UAL341 ✈ 27-Apr-2013 ✈ KSNA - KIAH

Flight Track Log - Related Links

Times and Time Zones

All times are in EDT time to prevent confusion due to time zone crossing. See the UAL341 flight status page for this flight to view local times or setup timezone preferences in your user account.

Time Position Orientation Groundspeed Altitude Reporting Facility
EDT Latitude Longitude Course Direction KTS MPH feet Rate Location/Type
11:08AM 33.6500 -117.8833 140° Southeast 135 155 1,300  Level Southern California TRACON
11:09AM 33.6167 -117.9000 203° Southwest 150 173 2,800 1,200 Climbing Southern California TRACON
11:10AM 33.5831 -117.8964 175° South 154 177 3,500 1,260 Climbing Los Angeles Center
11:11AM 33.5633 -117.4757 66° East  Level FlightAware Approximate
11:11AM 33.5236 -117.8692 159° South 220 253 5,200  Level Los Angeles Center
11:12AM 33.5418 -117.3255 103° East  Level FlightAware Approximate
11:12AM 33.4825 -117.7961 124° Southeast 259 298 8,100  Level Los Angeles Center
11:13AM 33.4708 -117.2040 140° Southeast  Level FlightAware Approximate
11:13AM 33.4819 -117.7039 90° East 272 313 10,800  Level Los Angeles Center
11:14AM 33.5231 -117.6089 63° Northeast 301 346 13,100 2,040 Climbing Los Angeles Center
11:15AM 33.5683 -117.5114 61° Northeast 322 371 15,100 2,460 Climbing Los Angeles Center
11:16AM 33.5692 -117.3703 90° East 363 418 18,200 2,340 Climbing Los Angeles Center
11:17AM 33.5303 -117.2522 112° Southeast 376 433 19,900 1,680 Climbing Los Angeles Center
11:18AM 33.4431 -117.1597 138° Southeast 400 460 21,700 1,680 Climbing Los Angeles Center
11:19AM 33.3528 -117.0739 142° Southeast 410 472 23,400 1,500 Climbing Los Angeles Center
11:20AM 33.2631 -116.9792 139° Southeast 425 489 24,900 1,380 Climbing Los Angeles Center
11:21AM 33.1717 -116.8831 139° Southeast 436 502 26,300 1,260 Climbing Los Angeles Center
11:22AM 33.0767 -116.7847 139° Southeast 445 512 27,500 1,200 Climbing Los Angeles Center
11:23AM 32.9742 -116.6550 133° Southeast 452 520 28,800 1,380 Climbing Los Angeles Center
11:24AM 32.9594 -116.5067 97° East 457 526 30,400 1,260 Climbing Los Angeles Center
11:25AM 32.9622 -116.3597 89° East 454 522 31,500 1,020 Climbing Los Angeles Center
11:26AM 32.9639 -116.1967 89° East 459 528 32,500 720 Climbing Los Angeles Center
11:27AM 32.9650 -116.0456 89° East 457 526 33,000 240 Climbing Los Angeles Center
11:28AM 32.9658 -115.8958 90° East 453 521 33,000  Level Los Angeles Center
11:29AM 32.9675 -115.7439 89° East 458 527 33,000  Level Los Angeles Center
11:30AM 32.9675 -115.5922 90° East 459 528 33,000  Level Los Angeles Center
11:31AM 32.9694 -115.4403 89° East 459 528 33,000  Level Los Angeles Center
11:32AM 32.9697 -115.2886 90° East 459 528 33,000  Level Los Angeles Center
11:33AM 32.9689 -115.1061 90° East 461 531 33,000  Level Los Angeles Center
11:34AM 32.9700 -114.9533 89° East 462 532 33,000  Level Los Angeles Center
11:35AM 32.9703 -114.8011 90° East 462 532 33,000  Level Los Angeles Center
11:36AM 32.9703 -114.6494 90° East 460 529 33,000  Level Los Angeles Center
11:37AM 32.9692 -114.4964 90° East 462 532 33,000  Level Los Angeles Center
11:38AM 32.9697 -114.3442 90° East 461 531 33,000  Level Los Angeles Center
11:39AM 32.9733 -114.2308 88° East 460 529 33,000  Level Albuquerque Center
11:40AM 32.9725 -114.0778 90° East 461 531 33,000  Level Albuquerque Center
11:41AM 32.9719 -113.9272 90° East 458 527 33,000 -60 Level Albuquerque Center
11:42AM 32.9700 -113.7744 91° East 459 528 32,900  Descending Albuquerque Center
11:43AM 32.9686 -113.6228 91° East 459 528 33,000  Climbing Albuquerque Center
11:44AM 32.9675 -113.4692 90° East 461 531 33,000  Level Albuquerque Center
11:45AM 32.9664 -113.2853 90° East 461 531 33,000  Level Albuquerque Center
11:46AM 32.9639 -113.1306 91° East 464 534 33,000  Level Albuquerque Center
11:47AM 32.9622 -112.9758 91° East 465 535 33,000  Level Albuquerque Center
11:48AM 32.9586 -112.8214 92° East 465 535 33,000  Level Albuquerque Center
11:49AM 32.9553 -112.6658 91° East 465 535 33,000  Level Albuquerque Center
11:50AM 32.9258 -112.5131 103° East 472 543 33,000  Level Albuquerque Center
11:51AM 32.8978 -112.3592 102° East 473 544 33,000  Level Albuquerque Center
11:52AM 32.8708 -112.2136 102° East 469 540 33,000  Level Albuquerque Center
11:53AM 32.8367 -112.0333 103° East 468 539 33,000  Level Albuquerque Center
11:54AM 32.8136 -111.8811 100° East 471 542 33,000  Level Albuquerque Center
11:56AM 32.7903 -111.7283 100° East 472 543 33,000  Level Albuquerque Center
11:57AM 32.7672 -111.5772 100° East 469 540 33,000  Level Albuquerque Center
11:58AM 32.7436 -111.4269 101° East 465 535 33,000  Level Albuquerque Center
11:59AM 32.7203 -111.2756 100° East 467 537 33,000  Level Albuquerque Center
12:00PM 32.6958 -111.1264 101° East 466 536 33,000  Level Albuquerque Center
12:01PM 32.6661 -110.9447 101° East 469 540 33,000  Level Albuquerque Center
12:02PM 32.6406 -110.7919 101° East 472 543 33,000  Level Albuquerque Center
12:03PM 32.6156 -110.6389 101° East 474 545 33,000  Level Albuquerque Center
12:04PM 32.5900 -110.4858 101° East 475 547 33,000  Level Albuquerque Center
12:05PM 32.5644 -110.3281 101° East 474 545 33,000  Level Albuquerque Center
12:06PM 32.5394 -110.1781 101° East 472 543 33,000  Level Albuquerque Center
12:07PM 32.5125 -110.0275 102° East 472 543 33,000 120 Level Albuquerque Center
12:08PM 32.4881 -109.8750 101° East 474 545 33,300 600 Climbing Albuquerque Center
12:09PM 32.4556 -109.6922 102° East 476 548 34,300 840 Climbing Albuquerque Center
12:10PM 32.4267 -109.5350 102° East 487 560 35,100 780 Climbing Albuquerque Center
12:11PM 32.4000 -109.3800 101° East 489 563 36,000 900 Climbing Albuquerque Center
12:12PM 32.3719 -109.2244 102° East 490 564 37,000 480 Climbing Albuquerque Center
12:13PM 32.3453 -109.0689 101° East 490 564 37,000  Level Albuquerque Center
12:14PM 32.3111 -108.8828 102° East 491 565 37,100 180 Climbing Albuquerque Center
12:15PM 32.2831 -108.7261 102° East 493 567 37,400 480 Climbing Albuquerque Center
12:16PM 32.2542 -108.5672 102° East 499 574 38,200 480 Climbing Albuquerque Center
12:17PM 32.2269 -108.4169 102° East 498 573 38,500 360 Climbing Albuquerque Center
12:18PM 32.1911 -108.2236 102° East 503 579 39,000 240 Climbing Albuquerque Center
12:19PM 32.1614 -108.0631 102° East 503 579 39,000  Level Albuquerque Center
12:20PM 32.1306 -107.9036 103° East 503 579 39,000  Level Albuquerque Center
12:21PM 32.1017 -107.7428 102° East 505 581 39,000  Level Albuquerque Center
12:22PM 32.0711 -107.5825 103° East 506 582 39,000  Level Albuquerque Center
12:23PM 32.0403 -107.4214 103° East 508 585 39,000  Level Albuquerque Center
12:24PM 32.0042 -107.2289 102° East 508 585 39,000  Level Albuquerque Center
12:25PM 31.9736 -107.0686 103° East 508 585 39,000  Level Albuquerque Center
12:26PM 31.9419 -106.9094 103° East 507 583 39,000  Level Albuquerque Center
12:27PM 31.9108 -106.7506 103° East 504 580 39,000  Level Albuquerque Center
12:28PM 31.8786 -106.5922 103° East 502 578 39,000 -60 Level Albuquerque Center
12:29PM 31.8464 -106.4253 103° East 510 587 38,900  Descending Albuquerque Center
12:30PM 31.8139 -106.2639 103° East 509 586 39,000  Climbing Albuquerque Center
12:31PM 31.7642 -106.0750 107° East 506 582 39,000 -60 Level Albuquerque Center
12:32PM 31.7244 -105.9164 106° East 506 582 38,900 -60 Descending Albuquerque Center
12:34PM 31.6850 -105.7597 106° East 502 578 38,900  Level Albuquerque Center
12:35PM 31.6447 -105.6003 106° East 507 583 39,000  Climbing Albuquerque Center
12:36PM 31.6053 -105.4400 106° East 510 587 39,000  Level Albuquerque Center
12:37PM 31.5644 -105.2808 107° East 509 586 39,000  Level Albuquerque Center
12:38PM 31.5244 -105.1214 106° East 507 583 39,000  Level Albuquerque Center
12:39PM 31.4836 -104.9611 107° East 509 586 39,000  Level Albuquerque Center
12:40PM 31.4347 -104.7703 107° East 508 585 39,000  Level Albuquerque Center
12:41PM 31.3925 -104.6117 107° East 508 585 39,000  Level Albuquerque Center
12:42PM 31.3517 -104.4531 107° East 508 585 39,000  Level Albuquerque Center
12:43PM 31.3117 -104.2958 107° East 504 580 39,000  Level Albuquerque Center
12:44PM 31.2697 -104.1381 107° East 506 582 39,000  Level Albuquerque Center
12:45PM 31.2269 -103.9794 107° East 510 587 39,000  Level Albuquerque Center
12:46PM 31.1844 -103.8222 107° East 509 586 39,000  Level Albuquerque Center
12:47PM 31.1356 -103.6483 108° East 510 587 39,000  Level Albuquerque Center
12:48PM 31.0919 -103.4917 108° East 509 586 39,000  Level Albuquerque Center
12:49PM 31.0486 -103.3356 108° East 508 585 39,000  Level Albuquerque Center
12:50PM 31.0042 -103.1778 108° East 512 589 39,000  Level Albuquerque Center
12:51PM 30.9553 -102.9933 107° East 504 580 39,000  Level Albuquerque Center
12:52PM 30.9125 -102.8367 108° East 508 585 39,000  Level Albuquerque Center
12:53PM 30.8708 -102.6789 107° East 513 590 39,000  Level Albuquerque Center
12:54PM 30.8272 -102.5219 108° East 514 592 39,000  Level Albuquerque Center
12:55PM 30.7850 -102.3656 107° East 514 592 39,000  Level Albuquerque Center
12:56PM 30.7331 -102.1778 108° East 513 590 39,000  Level Albuquerque Center
12:57PM 30.6900 -102.0200 108° East 514 592 39,000  Level Albuquerque Center
12:58PM 30.6456 -101.8631 108° East 516 594 39,000  Level Albuquerque Center
01:00PM 30.5753 -101.6108 108° East 513 590 39,000  Level Houston Center
01:01PM 30.5383 -101.4783 108° East 510 587 39,000 -60 Level Houston Center
01:02PM 30.4867 -101.2919 108° East 507 583 38,900  Descending Houston Center
01:03PM 30.4408 -101.1375 109° East 507 583 39,000  Climbing Houston Center
01:04PM 30.3969 -100.9817 108° East 509 586 38,900  Descending Houston Center
01:05PM 30.3519 -100.8261 108° East 508 585 39,000  Climbing Houston Center
01:06PM 30.3072 -100.6711 108° East 509 586 39,000  Level Houston Center
01:07PM 30.2628 -100.5153 108° East 507 583 39,000  Level Houston Center
01:08PM 30.2178 -100.3608 109° East 504 580 39,000 -60 Level Houston Center
01:09PM 30.1739 -100.2036 108° East 503 579 38,900 -60 Descending Houston Center
01:10PM 30.1269 -100.0464 109° East 506 582 38,900  Level Houston Center
01:11PM 30.0717 -99.8633 109° East 501 577 39,000  Climbing Houston Center
01:12PM 30.0250 -99.7097 109° East 506 582 39,000  Level Houston Center
01:13PM 29.9783 -99.5550 109° East 509 586 39,000  Level Houston Center
01:14PM 29.9319 -99.4014 109° East 508 585 39,000  Level Houston Center
01:15PM 29.8869 -99.2478 109° East 509 586 39,000  Level Houston Center
01:16PM 29.8400 -99.0942 109° East 509 586 39,000  Level Houston Center
01:17PM 29.7875 -98.9228 109° East 508 585 39,000 -360 Level Houston Center
01:18PM 29.7356 -98.7569 110° East 510 587 38,300 -1,140 Descending Houston Center
01:19PM 29.6886 -98.6061 110° East 502 578 36,700 -1,560 Descending Houston Center
01:20PM 29.6561 -98.4419 103° East 497 572 35,100 -840 Descending Houston Center
01:21PM 29.6475 -98.2783 93° East 507 583 35,000 -60 Descending Houston Center
01:22PM 29.6497 -98.1175 89° East 505 581 35,000 -780 Level Houston Center
01:23PM 29.6508 -97.9569 90° East 503 579 33,400 -1,860 Descending Houston Center
01:24PM 29.6536 -97.7906 89° East 505 581 31,200 -2,100 Descending Houston Center
01:25PM 29.6558 -97.6328 89° East 500 575 29,200 -1,860 Descending Houston Center
01:27PM 29.6575 -97.4800 89° East 484 557 27,400 -1,800 Descending Houston Center
01:28PM 29.6581 -97.3336 90° East 461 531 25,500 -1,800 Descending Houston Center
01:29PM 29.6589 -97.1908 90° East 446 513 23,700 -1,860 Descending Houston Center
01:30PM 29.6608 -97.0525 89° East 434 499 21,800 -1,860 Descending Houston Center
01:31PM 29.6483 -96.9183 96° East 419 482 19,900 -2,040 Descending Houston Center
01:32PM 29.6278 -96.7644 99° East 404 465 17,700 -1,800 Descending Houston Center
01:33PM 29.6225 -96.6419 93° East 385 443 16,200 -1,620 Descending Houston Center
01:34PM 29.6194 -96.5217 92° East 377 434 14,400 -1,800 Descending Houston Center
01:34PM 29.6164 -96.4589 93° East 372 428 13,500 -1,800 Descending Houston Center
01:35PM 29.6178 -96.4039 88° East 371 427 12,600 -1,680 Descending Houston Center
01:35PM 29.6033 -96.3522 108° East 359 413 11,800 -1,680 Descending Houston Center
01:36PM 29.5894 -96.2969 106° East 353 406 10,900 -1,680 Descending Houston Center
01:36PM 29.5686 -96.2408 113° Southeast 342 394 10,100 -900 Descending Houston Center
01:37PM 29.5544 -96.1967 110° East 341 392 10,000 -120 Descending Houston Center
01:37PM 29.5669 -96.1233 79° East 343 395 10,000  Level Houston Center
01:38PM 29.5792 -96.0969 62° Northeast 342 394 10,000 -900 Level Houston Center
01:38PM 29.6067 -96.0469 58° Northeast 312 359 9,300 -1,020 Descending Houston Center
01:39PM 29.6247 -96.0119 59° Northeast 320 368 9,000 -360 Descending Houston Center
01:39PM 29.6458 -95.9681 61° Northeast 313 360 9,000  Level Houston Center
01:40PM 29.6750 -95.9081 61° Northeast 313 360 9,000 -960 Level Houston Center
01:40PM 29.6997 -95.8633 58° Northeast 313 360 7,900 -1,920 Descending Houston Center
01:41PM 29.7186 -95.8239 61° Northeast 310 357 7,100 -1,140 Descending Houston Center
01:41PM 29.7336 -95.7944 60° Northeast 308 354 7,000  Descending Houston Center
01:42PM 29.7844 -95.7789 15° North 305 351 7,100  Climbing Houston Center
01:42PM 29.8161 -95.7778 North 242 278 7,000  Descending Houston Center
01:43PM 29.8514 -95.7781 360° North 250 288 7,100  Climbing Houston Center
01:43PM 29.8794 -95.7822 353° North 224 258 7,000 -120 Descending Houston Center
01:44PM 29.9136 -95.7822 360° North 227 261 7,000 -300 Level Houston Center
01:44PM 29.9425 -95.7847 356° North 223 257 6,700 -900 Descending Houston Center
01:45PM 29.9683 -95.7606 39° Northeast 238 274 6,100 -720 Descending Houston Center
01:45PM 29.9817 -95.7294 64° Northeast 232 267 6,000 -540 Descending Houston Center
01:46PM 29.9922 -95.6931 71° East 227 261 5,600 -900 Descending Houston Center
01:46PM 29.9919 -95.6558 90° East 223 257 5,100 -1,260 Descending Houston Center
01:47PM 29.9925 -95.6067 89° East 226 260 4,300 -1,320 Descending Houston Center
01:47PM 29.9919 -95.5836 92° East 223 257 3,800 -1,620 Descending Houston Center